Al Mismiyah, Syria
Current Conditions -  °F | °C
As of 4:00 PM on Wednesday 26 Nov 2014 (Local Time) from OSDI Reporting Station
Scattered Clouds Scattered Clouds  
Wind Chill: 52°   Ceiling: Unl
Heat Index: 52°   Visibility: 6mi
Dew Point: 46°   Wind: 25mph
Humidity: 82%   Direction: 220°SW
Pressure: 29.83"   Gusts: NA
Location:  33.13°N, 36.38°E
Report Text: OSDI 261300Z 22022KT 9999 FEW026 SCT030 11/08 Q1010
Loading
Personal Weather Stations






























Interactive Weather Map New forecast layout! Learn more

10-Day Weather Forecast

Advertisements
Track Severe Weather on mobile